Time;durP1;ratioP1;P1;durP2;ratioP2;P2;SDS_P1;SDS_P2;PMS_P1;PMS_P2;Temp;Humidity;BMP_temperature;BMP_pressure;BME280_temperature;BME280_humidity;BME280_pressure;Samples;Min_cycle;Max_cycle;Signal;HPM_P1;HPM_P2
2022/02/10 00:07:48;;;;;;;32.78;19.17;;;;;;;8.37;100.00;102135.31;10336368;28;20078;-74
2022/02/10 00:23:20;;;;;;;37.83;20.08;;;;;;;8.34;100.00;102111.31;10377932;28;20125;-74
2022/02/10 00:39:16;;;;;;;33.47;24.20;;;;;;;8.30;100.00;102091.03;10376809;28;20223;-74
2022/02/10 00:44:17;;;;;;;43.63;23.63;;;;;;;8.32;100.00;102080.94;10376614;28;20052;-74
2022/02/10 00:49:17;;;;;;;34.72;24.08;;;;;;;8.37;100.00;102081.31;10358924;28;20128;-74
2022/02/10 00:54:24;;;;;;;34.60;22.50;;;;;;;8.20;100.00;102072.22;10377625;28;20030;-74
2022/02/10 01:30:51;;;;;;;41.38;23.25;;;;;;;7.92;100.00;102026.41;10401394;28;20033;-74
2022/02/10 01:35:51;;;;;;;41.38;23.63;;;;;;;7.92;100.00;102018.31;10415411;28;20056;-74
2022/02/10 02:07:33;;;;;;;43.05;26.95;;;;;;;7.87;100.00;101985.56;10374304;28;20465;-74
2022/02/10 02:12:33;;;;;;;43.13;25.27;;;;;;;7.88;100.00;101975.59;10374007;28;20038;-74
2022/02/10 02:17:34;;;;;;;42.30;25.45;;;;;;;7.88;100.00;101971.09;10373637;28;20034;-73
2022/02/10 02:22:34;;;;;;;46.63;25.95;;;;;;;7.77;100.00;101981.25;10374468;28;20045;-73
2022/02/10 02:27:54;;;;;;;48.67;28.23;;;;;;;7.81;100.00;101969.13;10373128;28;20034;-73
2022/02/10 02:38:42;;;;;;;63.38;31.85;;;;;;;7.78;100.00;101959.50;10374437;28;20049;-73
2022/02/10 03:16:00;;;;;;;42.40;27.05;;;;;;;7.81;100.00;101912.50;10422363;28;20125;-74
2022/02/10 04:14:10;;;;;;;49.83;32.60;;;;;;;7.78;100.00;101907.44;10418594;28;20109;-72
2022/02/10 04:24:28;;;;;;;42.75;26.42;;;;;;;7.85;100.00;101913.91;10418407;28;20045;-71
2022/02/10 04:30:05;;;;;;;43.15;26.90;;;;;;;7.90;100.00;101916.97;10417736;28;20197;-71
2022/02/10 05:38:17;;;;;;;9.60;3.90;;;;;;;7.32;100.00;101920.09;10418583;28;20045;-74
2022/02/10 05:43:42;;;;;;;3.47;2.97;;;;;;;7.22;100.00;101915.63;10418268;28;20034;-73
2022/02/10 05:53:59;;;;;;;4.80;2.83;;;;;;;7.16;100.00;101926.16;10415173;28;20084;-73
2022/02/10 06:52:44;;;;;;;6.72;3.30;;;;;;;6.58;100.00;101978.38;10255661;28;20053;-75
2022/02/10 06:58:12;;;;;;;4.95;3.70;;;;;;;6.59;100.00;101981.91;10395179;28;20076;-74
2022/02/10 09:20:29;;;;;;;8.27;3.35;;;;;;;8.82;100.00;102078.53;10419483;28;20123;-77
2022/02/10 10:18:00;;;;;;;4.40;3.40;;;;;;;8.87;100.00;102123.13;10420040;28;19917;-77
2022/02/10 10:23:35;;;;;;;6.93;4.68;;;;;;;8.81;100.00;102111.97;10415502;28;20415;-77
2022/02/10 10:45:00;;;;;;;5.55;2.80;;;;;;;9.37;100.00;102117.91;10400401;28;20112;-77
2022/02/10 10:49:56;;;;;;;5.93;3.10;;;;;;;9.51;100.00;102124.59;10415141;28;20050;-77
2022/02/10 11:38:11;;;;;;;15.38;3.75;;;;;;;9.44;100.00;102127.06;10420514;28;20109;-77
2022/02/10 12:32:48;;;;;;;3.33;2.90;;;;;;;9.99;100.00;102132.09;10419403;28;20034;-76
2022/02/10 12:37:06;;;;;;;9.05;2.33;;;;;;;9.87;100.00;102133.41;10403556;28;20037;-78
2022/02/10 13:03:02;;;;;;;3.30;1.77;;;;;;;9.42;99.53;102134.53;10421034;28;20076;-75
2022/02/10 14:12:56;;;;;;;6.25;3.50;;;;;;;8.87;100.00;102106.91;10414932;28;20049;-75
2022/02/10 14:25:38;;;;;;;7.78;2.47;;;;;;;8.56;99.11;102116.28;10414977;28;20041;-76
2022/02/10 14:28:36;;;;;;;1.98;1.65;;;;;;;8.65;98.99;102124.44;10400685;28;20041;-76
2022/02/10 14:33:39;;;;;;;7.30;3.63;;;;;;;8.53;99.78;102126.56;10381780;28;20392;-75
2022/02/10 16:19:02;;;;;;;2.95;2.67;;;;;;;6.72;98.21;102128.66;10419690;28;20049;-77
2022/02/10 16:24:13;;;;;;;4.70;2.60;;;;;;;6.67;97.73;102130.09;10411107;28;20059;-77
2022/02/10 16:29:17;;;;;;;14.55;2.78;;;;;;;6.62;97.28;102127.81;10391754;28;20038;-76
2022/02/10 16:34:17;;;;;;;8.05;3.72;;;;;;;6.46;97.36;102133.75;10420520;28;20037;-76
2022/02/10 16:39:18;;;;;;;9.50;2.50;;;;;;;6.33;96.51;102119.72;10386130;28;20374;-75
2022/02/10 16:44:19;;;;;;;3.78;2.60;;;;;;;6.26;96.29;102122.13;10419964;28;20069;-76
2022/02/10 16:49:22;;;;;;;7.85;4.13;;;;;;;6.11;95.49;102128.03;10402044;28;20068;-76
2022/02/10 17:04:53;;;;;;;9.82;2.53;;;;;;;6.01;96.64;102134.25;10399415;28;20053;-76
2022/02/10 17:25:44;;;;;;;7.00;2.60;;;;;;;5.92;96.28;102148.47;10417577;28;20038;-77
2022/02/10 17:36:16;;;;;;;5.38;2.83;;;;;;;5.86;95.58;102151.69;10391625;28;20048;-75
2022/02/10 17:56:49;;;;;;;10.05;4.03;;;;;;;5.92;97.52;102155.69;10415931;28;20120;-77
2022/02/10 18:01:49;;;;;;;8.98;3.38;;;;;;;6.02;97.93;102161.97;10415355;28;20037;-77
2022/02/10 18:06:54;;;;;;;9.48;3.63;;;;;;;5.98;97.82;102161.41;10416582;28;20033;-77
2022/02/10 18:12:52;;;;;;;10.52;4.13;;;;;;;5.94;97.45;102161.81;10397944;28;20465;-77
2022/02/10 18:17:32;;;;;;;12.85;3.63;;;;;;;5.94;97.05;102162.66;10415225;28;20099;-76
2022/02/10 19:10:11;;;;;;;3.67;3.38;;;;;;;5.70;97.80;102195.19;10415376;28;20037;-77
2022/02/10 19:15:18;;;;;;;11.55;2.85;;;;;;;5.75;98.38;102182.22;10415973;28;20038;-76
2022/02/10 19:20:23;;;;;;;;;;;;;;;5.82;99.52;102183.38;10415018;28;20042;-76
2022/02/10 19:25:23;;;;;;;8.60;3.55;;;;;;;5.79;98.03;102183.66;10400980;28;20332;-77
2022/02/10 19:30:25;;;;;;;11.30;3.28;;;;;;;5.56;97.86;102163.31;10403852;28;20041;-78
2022/02/10 19:35:27;;;;;;;8.15;2.67;;;;;;;5.53;97.81;102183.25;10404170;28;20461;-77
2022/02/10 19:40:29;;;;;;;12.50;3.95;;;;;;;5.50;97.46;102172.75;10406654;28;20042;-77
2022/02/10 19:45:30;;;;;;;6.22;2.85;;;;;;;5.50;96.93;102175.44;10403156;28;20033;-76
2022/02/10 19:50:31;;;;;;;4.30;3.30;;;;;;;5.48;96.27;102184.63;10403377;28;20095;-75
2022/02/10 19:55:34;;;;;;;22.13;3.15;;;;;;;5.44;96.91;102178.66;10421098;28;20033;-77
2022/02/10 20:00:39;;;;;;;9.82;4.20;;;;;;;5.53;97.98;102185.94;10391854;28;20037;-75
2022/02/10 20:05:45;;;;;;;9.50;3.00;;;;;;;5.66;98.15;102185.72;10402085;28;20046;-77
2022/02/10 20:10:45;;;;;;;5.50;2.65;;;;;;;5.68;97.11;102180.19;10403227;28;20030;-77
2022/02/10 20:15:47;;;;;;;3.00;2.58;;;;;;;5.62;96.12;102186.13;10403158;28;20052;-77
2022/02/10 20:20:53;;;;;;;10.27;3.40;;;;;;;5.57;95.55;102183.81;10402237;28;20464;-77
2022/02/10 20:25:53;;;;;;;13.17;3.77;;;;;;;5.49;95.24;102179.13;10387541;28;20068;-78
2022/02/10 20:30:53;;;;;;;4.03;2.20;;;;;;;5.39;95.34;102177.34;10420098;28;20064;-77
2022/02/10 20:35:55;;;;;;;17.13;3.25;;;;;;;5.47;94.84;102196.34;10421022;28;20369;-77
2022/02/10 20:41:01;;;;;;;20.38;3.72;;;;;;;5.39;94.67;102197.00;10409700;28;20076;-80
2022/02/10 20:46:04;;;;;;;11.20;2.63;;;;;;;5.34;94.24;102202.78;10382582;28;20113;-78
2022/02/10 20:51:12;;;;;;;17.92;3.65;;;;;;;5.22;93.70;102202.97;10411182;28;20056;-76
2022/02/10 20:56:13;;;;;;;14.57;3.20;;;;;;;5.05;92.86;102202.56;10409827;28;20092;-74
2022/02/10 21:01:14;;;;;;;7.60;3.10;;;;;;;4.98;92.63;102203.19;10427613;28;20037;-76
2022/02/10 21:06:39;;;;;;;7.35;3.15;;;;;;;4.88;92.47;102204.00;10391717;28;20057;-77
2022/02/10 21:11:38;;;;;;;12.18;3.65;;;;;;;4.79;92.70;102196.72;10404321;28;20131;-76
2022/02/10 21:16:41;;;;;;;16.85;3.55;;;;;;;4.80;92.99;102181.47;10401538;28;20061;-78
2022/02/10 21:21:42;;;;;;;8.48;3.95;;;;;;;4.75;92.27;102175.63;10404601;28;20033;-77
2022/02/10 21:27:04;;;;;;;8.38;3.58;;;;;;;4.63;93.04;102166.78;10400359;28;20364;-77
2022/02/10 21:32:03;;;;;;;7.43;3.38;;;;;;;4.61;93.23;102169.56;10402795;28;20029;-78
2022/02/10 21:37:08;;;;;;;13.05;3.70;;;;;;;4.59;92.32;102187.59;10400166;28;20041;-77
2022/02/10 21:58:54;;;;;;;9.05;3.65;;;;;;;4.53;92.23;102180.09;10401475;28;20037;-77
2022/02/10 22:03:47;;;;;;;8.75;3.38;;;;;;;4.61;93.02;102177.63;10415583;28;20049;-78
2022/02/10 22:19:18;;;;;;;6.03;2.10;;;;;;;4.74;94.32;102190.88;10401803;28;20034;-78
2022/02/10 22:24:19;;;;;;;9.75;3.25;;;;;;;4.75;93.16;102191.72;10416152;28;20040;-78
2022/02/10 22:29:33;;;;;;;20.83;3.10;;;;;;;4.75;93.68;102197.94;10428463;28;20384;-78
2022/02/10 22:34:39;;;;;;;7.15;3.38;;;;;;;4.68;93.51;102195.88;10416699;28;20476;-78
2022/02/10 22:39:41;;;;;;;13.23;2.77;;;;;;;4.75;92.97;102197.94;10417615;28;20037;-77
2022/02/10 22:44:42;;;;;;;15.68;3.22;;;;;;;4.65;92.93;102181.75;10382285;28;20465;-77
2022/02/10 22:49:42;;;;;;;12.13;3.25;;;;;;;4.71;92.08;102192.97;10397407;28;20118;-78
2022/02/10 22:54:43;;;;;;;12.07;4.13;;;;;;;4.75;92.15;102194.41;10414592;28;20065;-77
2022/02/10 22:59:43;;;;;;;4.35;2.67;;;;;;;4.58;91.70;102185.06;10402127;28;20108;-76
2022/02/10 23:04:43;;;;;;;7.47;2.50;;;;;;;4.55;92.34;102201.41;10406022;28;20106;-77
2022/02/10 23:14:44;;;;;;;7.80;4.28;;;;;;;4.76;94.63;102207.69;10404533;28;20120;-78
2022/02/10 23:19:45;;;;;;;18.40;4.10;;;;;;;4.83;94.26;102208.03;10404796;28;20037;-77
2022/02/10 23:24:45;;;;;;;18.75;3.92;;;;;;;4.80;94.42;102206.47;10422385;28;20057;-78
2022/02/10 23:29:46;;;;;;;10.68;3.65;;;;;;;4.84;94.09;102201.69;10427645;28;20549;-78
2022/02/10 23:34:46;;;;;;;11.98;3.35;;;;;;;5.03;95.61;102201.84;10411692;28;20040;-77
2022/02/10 23:39:49;;;;;;;13.82;3.65;;;;;;;5.17;96.14;102202.50;10430850;28;20045;-77
2022/02/10 23:44:50;;;;;;;10.27;2.30;;;;;;;5.27;95.94;102208.81;10390999;28;20040;-78
2022/02/10 23:49:52;;;;;;;11.55;4.60;;;;;;;5.25;94.88;102219.66;10420702;28;20088;-78
2022/02/10 23:54:58;;;;;;;12.45;3.05;;;;;;;5.43;94.80;102216.41;10421852;28;20034;-78
